sensor_id;sensor_type;location;lat;lon;timestamp;temperature;humidity
2603;DHT22;1311;47.966;7.958;2023-11-18T00:01:25;4.70;99.90
2603;DHT22;1311;47.966;7.958;2023-11-18T00:03:54;4.60;99.90
2603;DHT22;1311;47.966;7.958;2023-11-18T00:06:21;4.60;99.90
2603;DHT22;1311;47.966;7.958;2023-11-18T00:08:48;4.50;99.90
2603;DHT22;1311;47.966;7.958;2023-11-18T00:11:15;4.50;99.90
2603;DHT22;1311;47.966;7.958;2023-11-18T00:13:42;4.50;99.90
2603;DHT22;1311;47.966;7.958;2023-11-18T00:16:09;4.50;99.90
2603;DHT22;1311;47.966;7.958;2023-11-18T00:18:38;4.40;99.90
2603;DHT22;1311;47.966;7.958;2023-11-18T00:21:06;4.30;99.90
2603;DHT22;1311;47.966;7.958;2023-11-18T00:23:33;4.30;99.90
2603;DHT22;1311;47.966;7.958;2023-11-18T00:26:00;4.20;99.90
2603;DHT22;1311;47.966;7.958;2023-11-18T00:28:27;4.10;99.90
2603;DHT22;1311;47.966;7.958;2023-11-18T00:30:54;4.00;99.90
2603;DHT22;1311;47.966;7.958;2023-11-18T00:33:21;3.90;99.90
2603;DHT22;1311;47.966;7.958;2023-11-18T00:35:47;3.90;99.90
2603;DHT22;1311;47.966;7.958;2023-11-18T00:38:16;3.80;99.90
2603;DHT22;1311;47.966;7.958;2023-11-18T00:40:43;3.70;99.90
2603;DHT22;1311;47.966;7.958;2023-11-18T00:43:10;3.60;99.90
2603;DHT22;1311;47.966;7.958;2023-11-18T00:45:36;3.60;99.90
2603;DHT22;1311;47.966;7.958;2023-11-18T00:48:03;3.50;99.90
2603;DHT22;1311;47.966;7.958;2023-11-18T00:50:31;3.40;99.90
2603;DHT22;1311;47.966;7.958;2023-11-18T00:52:58;3.40;99.90
2603;DHT22;1311;47.966;7.958;2023-11-18T00:55:27;3.30;99.90
2603;DHT22;1311;47.966;7.958;2023-11-18T00:57:53;3.30;99.90
2603;DHT22;1311;47.966;7.958;2023-11-18T01:00:20;3.30;99.90
2603;DHT22;1311;47.966;7.958;2023-11-18T01:02:48;3.30;99.90
2603;DHT22;1311;47.966;7.958;2023-11-18T01:05:15;3.30;99.90
2603;DHT22;1311;47.966;7.958;2023-11-18T01:07:42;3.20;99.90
2603;DHT22;1311;47.966;7.958;2023-11-18T01:10:10;3.20;99.90
2603;DHT22;1311;47.966;7.958;2023-11-18T01:12:38;3.10;99.90
2603;DHT22;1311;47.966;7.958;2023-11-18T01:15:06;3.10;99.90
2603;DHT22;1311;47.966;7.958;2023-11-18T01:17:33;3.00;99.90
2603;DHT22;1311;47.966;7.958;2023-11-18T01:20:00;3.00;99.90
2603;DHT22;1311;47.966;7.958;2023-11-18T01:22:33;3.00;99.90
2603;DHT22;1311;47.966;7.958;2023-11-18T01:25:00;2.90;99.90
2603;DHT22;1311;47.966;7.958;2023-11-18T01:27:27;2.90;99.90
2603;DHT22;1311;47.966;7.958;2023-11-18T01:29:55;2.90;99.90
2603;DHT22;1311;47.966;7.958;2023-11-18T01:32:22;2.90;99.90
2603;DHT22;1311;47.966;7.958;2023-11-18T01:34:49;2.90;99.90
2603;DHT22;1311;47.966;7.958;2023-11-18T01:37:16;2.90;99.90
2603;DHT22;1311;47.966;7.958;2023-11-18T01:39:43;2.80;99.90
2603;DHT22;1311;47.966;7.958;2023-11-18T01:42:10;2.90;99.90
2603;DHT22;1311;47.966;7.958;2023-11-18T01:44:37;2.80;99.90
2603;DHT22;1311;47.966;7.958;2023-11-18T01:47:07;2.80;99.90
2603;DHT22;1311;47.966;7.958;2023-11-18T01:49:37;2.80;99.90
2603;DHT22;1311;47.966;7.958;2023-11-18T01:52:05;2.70;99.90
2603;DHT22;1311;47.966;7.958;2023-11-18T01:54:33;2.70;99.90
2603;DHT22;1311;47.966;7.958;2023-11-18T01:57:01;2.70;99.90
2603;DHT22;1311;47.966;7.958;2023-11-18T01:59:31;2.70;99.90
2603;DHT22;1311;47.966;7.958;2023-11-18T02:01:59;2.70;99.90
2603;DHT22;1311;47.966;7.958;2023-11-18T02:04:29;2.70;99.90
2603;DHT22;1311;47.966;7.958;2023-11-18T02:06:57;2.70;99.90
2603;DHT22;1311;47.966;7.958;2023-11-18T02:09:24;2.70;99.90
2603;DHT22;1311;47.966;7.958;2023-11-18T02:11:59;2.70;99.90
2603;DHT22;1311;47.966;7.958;2023-11-18T02:14:28;2.70;99.90
2603;DHT22;1311;47.966;7.958;2023-11-18T02:16:57;2.70;99.90
2603;DHT22;1311;47.966;7.958;2023-11-18T02:19:26;2.60;99.90
2603;DHT22;1311;47.966;7.958;2023-11-18T02:21:57;2.60;99.90
2603;DHT22;1311;47.966;7.958;2023-11-18T02:24:28;2.60;99.90
2603;DHT22;1311;47.966;7.958;2023-11-18T02:26:58;2.50;99.90
2603;DHT22;1311;47.966;7.958;2023-11-18T02:29:27;2.50;99.90
2603;DHT22;1311;47.966;7.958;2023-11-18T02:31:59;2.50;99.90
2603;DHT22;1311;47.966;7.958;2023-11-18T02:34:30;2.50;99.90
2603;DHT22;1311;47.966;7.958;2023-11-18T02:37:02;2.40;99.90
2603;DHT22;1311;47.966;7.958;2023-11-18T02:39:34;2.40;99.90
2603;DHT22;1311;47.966;7.958;2023-11-18T02:42:07;2.30;99.90
2603;DHT22;1311;47.966;7.958;2023-11-18T02:44:35;2.30;99.90
2603;DHT22;1311;47.966;7.958;2023-11-18T02:47:03;2.30;99.90
2603;DHT22;1311;47.966;7.958;2023-11-18T02:49:31;2.30;99.90
2603;DHT22;1311;47.966;7.958;2023-11-18T02:52:00;2.20;99.90
2603;DHT22;1311;47.966;7.958;2023-11-18T02:54:28;2.20;99.90
2603;DHT22;1311;47.966;7.958;2023-11-18T02:56:54;2.20;99.90
2603;DHT22;1311;47.966;7.958;2023-11-18T02:59:23;2.20;99.90
2603;DHT22;1311;47.966;7.958;2023-11-18T03:01:53;2.20;99.90
2603;DHT22;1311;47.966;7.958;2023-11-18T03:04:20;2.20;99.90
2603;DHT22;1311;47.966;7.958;2023-11-18T03:06:47;2.20;99.90
2603;DHT22;1311;47.966;7.958;2023-11-18T03:09:13;2.10;99.90
2603;DHT22;1311;47.966;7.958;2023-11-18T03:11:40;2.10;99.90
2603;DHT22;1311;47.966;7.958;2023-11-18T03:14:10;2.00;99.90
2603;DHT22;1311;47.966;7.958;2023-11-18T03:16:38;2.00;99.90
2603;DHT22;1311;47.966;7.958;2023-11-18T03:19:05;2.00;99.90
2603;DHT22;1311;47.966;7.958;2023-11-18T03:21:34;2.00;99.90
2603;DHT22;1311;47.966;7.958;2023-11-18T03:24:01;2.00;99.90
2603;DHT22;1311;47.966;7.958;2023-11-18T03:26:27;1.90;99.90
2603;DHT22;1311;47.966;7.958;2023-11-18T03:28:54;2.00;99.90
2603;DHT22;1311;47.966;7.958;2023-11-18T03:31:21;2.00;99.90
2603;DHT22;1311;47.966;7.958;2023-11-18T03:33:49;2.00;99.90
2603;DHT22;1311;47.966;7.958;2023-11-18T03:36:16;1.90;99.90
2603;DHT22;1311;47.966;7.958;2023-11-18T03:38:43;1.90;99.90
2603;DHT22;1311;47.966;7.958;2023-11-18T03:41:10;1.90;99.90
2603;DHT22;1311;47.966;7.958;2023-11-18T03:43:39;1.90;99.90
2603;DHT22;1311;47.966;7.958;2023-11-18T03:46:06;2.00;99.90
2603;DHT22;1311;47.966;7.958;2023-11-18T03:48:33;2.00;99.90
2603;DHT22;1311;47.966;7.958;2023-11-18T03:51:02;2.10;99.90
2603;DHT22;1311;47.966;7.958;2023-11-18T03:53:29;2.00;99.90
2603;DHT22;1311;47.966;7.958;2023-11-18T03:55:59;2.00;99.90
2603;DHT22;1311;47.966;7.958;2023-11-18T03:58:26;2.00;99.90
2603;DHT22;1311;47.966;7.958;2023-11-18T04:00:52;1.90;99.90
2603;DHT22;1311;47.966;7.958;2023-11-18T04:03:19;2.00;99.90
2603;DHT22;1311;47.966;7.958;2023-11-18T04:05:46;2.00;99.90
2603;DHT22;1311;47.966;7.958;2023-11-18T04:08:14;2.00;99.90
2603;DHT22;1311;47.966;7.958;2023-11-18T04:10:41;2.00;99.90
2603;DHT22;1311;47.966;7.958;2023-11-18T04:13:08;1.90;99.90
2603;DHT22;1311;47.966;7.958;2023-11-18T04:15:35;2.00;99.90
2603;DHT22;1311;47.966;7.958;2023-11-18T04:18:01;2.00;99.90
2603;DHT22;1311;47.966;7.958;2023-11-18T04:20:29;2.00;99.90
2603;DHT22;1311;47.966;7.958;2023-11-18T04:22:55;2.00;99.90
2603;DHT22;1311;47.966;7.958;2023-11-18T04:25:23;1.90;99.90
2603;DHT22;1311;47.966;7.958;2023-11-18T04:27:50;1.90;99.90
2603;DHT22;1311;47.966;7.958;2023-11-18T04:30:17;1.80;99.90
2603;DHT22;1311;47.966;7.958;2023-11-18T04:32:44;1.80;99.90
2603;DHT22;1311;47.966;7.958;2023-11-18T04:35:11;1.80;99.90
2603;DHT22;1311;47.966;7.958;2023-11-18T04:37:38;1.80;99.90
2603;DHT22;1311;47.966;7.958;2023-11-18T04:40:08;1.80;99.90
2603;DHT22;1311;47.966;7.958;2023-11-18T04:42:38;1.80;99.90
2603;DHT22;1311;47.966;7.958;2023-11-18T04:45:05;1.80;99.90
2603;DHT22;1311;47.966;7.958;2023-11-18T04:47:32;1.80;99.90
2603;DHT22;1311;47.966;7.958;2023-11-18T04:49:59;1.80;99.90
2603;DHT22;1311;47.966;7.958;2023-11-18T04:52:26;1.70;99.90
2603;DHT22;1311;47.966;7.958;2023-11-18T04:54:53;1.80;99.90
2603;DHT22;1311;47.966;7.958;2023-11-18T04:57:19;1.80;99.90
2603;DHT22;1311;47.966;7.958;2023-11-18T04:59:47;1.80;99.90
2603;DHT22;1311;47.966;7.958;2023-11-18T05:02:14;1.90;99.90
2603;DHT22;1311;47.966;7.958;2023-11-18T05:04:41;1.80;99.90
2603;DHT22;1311;47.966;7.958;2023-11-18T05:07:08;1.80;99.90
2603;DHT22;1311;47.966;7.958;2023-11-18T05:09:35;1.80;99.90
2603;DHT22;1311;47.966;7.958;2023-11-18T05:12:03;1.80;99.90
2603;DHT22;1311;47.966;7.958;2023-11-18T05:14:30;1.80;99.90
2603;DHT22;1311;47.966;7.958;2023-11-18T05:16:59;1.80;99.90
2603;DHT22;1311;47.966;7.958;2023-11-18T05:19:27;1.80;99.90
2603;DHT22;1311;47.966;7.958;2023-11-18T05:21:53;1.80;99.90
2603;DHT22;1311;47.966;7.958;2023-11-18T05:24:21;1.90;99.90
2603;DHT22;1311;47.966;7.958;2023-11-18T05:26:47;1.90;99.90
2603;DHT22;1311;47.966;7.958;2023-11-18T05:29:14;1.90;99.90
2603;DHT22;1311;47.966;7.958;2023-11-18T05:31:42;1.90;99.90
2603;DHT22;1311;47.966;7.958;2023-11-18T05:34:11;1.90;99.90
2603;DHT22;1311;47.966;7.958;2023-11-18T05:36:38;1.90;99.90
2603;DHT22;1311;47.966;7.958;2023-11-18T05:39:05;1.90;99.90
2603;DHT22;1311;47.966;7.958;2023-11-18T05:41:33;1.90;99.90
2603;DHT22;1311;47.966;7.958;2023-11-18T05:44:00;2.00;99.90
2603;DHT22;1311;47.966;7.958;2023-11-18T05:46:27;1.90;99.90
2603;DHT22;1311;47.966;7.958;2023-11-18T05:48:55;1.90;99.90
2603;DHT22;1311;47.966;7.958;2023-11-18T05:51:25;1.90;99.90
2603;DHT22;1311;47.966;7.958;2023-11-18T05:53:54;1.90;99.90
2603;DHT22;1311;47.966;7.958;2023-11-18T05:56:21;1.90;99.90
2603;DHT22;1311;47.966;7.958;2023-11-18T05:58:48;2.00;99.90
2603;DHT22;1311;47.966;7.958;2023-11-18T06:01:15;2.00;99.90
2603;DHT22;1311;47.966;7.958;2023-11-18T06:03:43;2.10;99.90
2603;DHT22;1311;47.966;7.958;2023-11-18T06:06:12;2.20;99.90
2603;DHT22;1311;47.966;7.958;2023-11-18T06:08:42;2.20;99.90
2603;DHT22;1311;47.966;7.958;2023-11-18T06:11:09;2.30;99.90
2603;DHT22;1311;47.966;7.958;2023-11-18T06:13:40;2.30;99.90
2603;DHT22;1311;47.966;7.958;2023-11-18T06:16:09;2.30;99.90
2603;DHT22;1311;47.966;7.958;2023-11-18T06:18:40;2.40;99.90
2603;DHT22;1311;47.966;7.958;2023-11-18T06:21:07;2.40;99.90
2603;DHT22;1311;47.966;7.958;2023-11-18T06:23:34;2.40;99.90
2603;DHT22;1311;47.966;7.958;2023-11-18T06:26:03;2.30;99.90
2603;DHT22;1311;47.966;7.958;2023-11-18T06:28:30;2.40;99.90
2603;DHT22;1311;47.966;7.958;2023-11-18T06:30:56;2.40;99.90
2603;DHT22;1311;47.966;7.958;2023-11-18T06:33:23;2.50;99.90
2603;DHT22;1311;47.966;7.958;2023-11-18T06:35:53;2.50;99.90
2603;DHT22;1311;47.966;7.958;2023-11-18T06:38:22;2.60;99.90
2603;DHT22;1311;47.966;7.958;2023-11-18T06:40:50;2.60;99.90
2603;DHT22;1311;47.966;7.958;2023-11-18T06:43:19;2.60;99.90
2603;DHT22;1311;47.966;7.958;2023-11-18T06:45:47;2.70;99.90
2603;DHT22;1311;47.966;7.958;2023-11-18T06:48:14;2.70;99.90
2603;DHT22;1311;47.966;7.958;2023-11-18T06:50:45;2.80;99.90
2603;DHT22;1311;47.966;7.958;2023-11-18T06:53:12;2.80;99.90
2603;DHT22;1311;47.966;7.958;2023-11-18T06:55:41;2.80;99.90
2603;DHT22;1311;47.966;7.958;2023-11-18T06:58:08;2.80;99.90
2603;DHT22;1311;47.966;7.958;2023-11-18T07:00:37;2.80;99.90
2603;DHT22;1311;47.966;7.958;2023-11-18T07:03:04;2.90;99.90
2603;DHT22;1311;47.966;7.958;2023-11-18T07:05:32;2.90;99.90
2603;DHT22;1311;47.966;7.958;2023-11-18T07:07:58;3.10;99.90
2603;DHT22;1311;47.966;7.958;2023-11-18T07:10:25;3.10;99.90
2603;DHT22;1311;47.966;7.958;2023-11-18T07:12:53;3.20;99.90
2603;DHT22;1311;47.966;7.958;2023-11-18T07:15:20;3.30;99.90
2603;DHT22;1311;47.966;7.958;2023-11-18T07:17:48;3.30;99.90
2603;DHT22;1311;47.966;7.958;2023-11-18T07:20:16;3.40;99.90
2603;DHT22;1311;47.966;7.958;2023-11-18T07:22:43;3.50;99.90
2603;DHT22;1311;47.966;7.958;2023-11-18T07:25:11;3.50;99.90
2603;DHT22;1311;47.966;7.958;2023-11-18T07:27:38;3.60;99.90
2603;DHT22;1311;47.966;7.958;2023-11-18T07:30:06;3.80;99.90
2603;DHT22;1311;47.966;7.958;2023-11-18T07:32:36;3.90;99.90
2603;DHT22;1311;47.966;7.958;2023-11-18T07:35:04;4.00;99.90
2603;DHT22;1311;47.966;7.958;2023-11-18T07:37:35;4.10;99.90
2603;DHT22;1311;47.966;7.958;2023-11-18T07:40:03;4.20;99.90
2603;DHT22;1311;47.966;7.958;2023-11-18T07:42:31;4.30;99.90
2603;DHT22;1311;47.966;7.958;2023-11-18T07:44:59;4.30;99.90
2603;DHT22;1311;47.966;7.958;2023-11-18T07:47:29;4.40;99.90
2603;DHT22;1311;47.966;7.958;2023-11-18T07:49:56;4.40;99.90
2603;DHT22;1311;47.966;7.958;2023-11-18T07:52:25;4.50;99.90
2603;DHT22;1311;47.966;7.958;2023-11-18T07:54:53;4.50;99.90
2603;DHT22;1311;47.966;7.958;2023-11-18T07:57:20;4.60;99.90
2603;DHT22;1311;47.966;7.958;2023-11-18T07:59:49;4.60;99.90
2603;DHT22;1311;47.966;7.958;2023-11-18T08:02:16;4.70;99.90
2603;DHT22;1311;47.966;7.958;2023-11-18T08:04:44;4.70;99.90
2603;DHT22;1311;47.966;7.958;2023-11-18T08:07:11;4.70;99.90
2603;DHT22;1311;47.966;7.958;2023-11-18T08:09:40;4.80;99.90
2603;DHT22;1311;47.966;7.958;2023-11-18T08:12:08;5.00;99.90
2603;DHT22;1311;47.966;7.958;2023-11-18T08:14:35;5.00;99.90
2603;DHT22;1311;47.966;7.958;2023-11-18T08:17:02;5.20;99.90
2603;DHT22;1311;47.966;7.958;2023-11-18T08:19:31;5.30;99.90
2603;DHT22;1311;47.966;7.958;2023-11-18T08:21:59;5.30;99.90
2603;DHT22;1311;47.966;7.958;2023-11-18T08:24:26;5.40;99.90
2603;DHT22;1311;47.966;7.958;2023-11-18T08:26:56;5.40;99.90
2603;DHT22;1311;47.966;7.958;2023-11-18T08:29:22;5.50;99.90
2603;DHT22;1311;47.966;7.958;2023-11-18T08:31:50;5.50;99.90
2603;DHT22;1311;47.966;7.958;2023-11-18T08:34:17;5.40;99.90
2603;DHT22;1311;47.966;7.958;2023-11-18T08:36:44;5.50;99.90
2603;DHT22;1311;47.966;7.958;2023-11-18T08:39:11;5.70;99.90
2603;DHT22;1311;47.966;7.958;2023-11-18T08:41:42;5.80;99.90
2603;DHT22;1311;47.966;7.958;2023-11-18T08:44:10;5.90;99.90
2603;DHT22;1311;47.966;7.958;2023-11-18T08:46:38;6.00;99.90
2603;DHT22;1311;47.966;7.958;2023-11-18T08:49:05;6.30;99.90
2603;DHT22;1311;47.966;7.958;2023-11-18T08:51:36;6.50;99.90
2603;DHT22;1311;47.966;7.958;2023-11-18T08:54:04;6.70;99.90
2603;DHT22;1311;47.966;7.958;2023-11-18T08:56:48;6.90;99.90
2603;DHT22;1311;47.966;7.958;2023-11-18T08:59:18;7.10;99.90
2603;DHT22;1311;47.966;7.958;2023-11-18T09:01:50;7.20;99.90
2603;DHT22;1311;47.966;7.958;2023-11-18T09:04:21;7.20;99.90
2603;DHT22;1311;47.966;7.958;2023-11-18T09:06:49;7.30;99.90
2603;DHT22;1311;47.966;7.958;2023-11-18T09:09:17;7.40;99.90
2603;DHT22;1311;47.966;7.958;2023-11-18T09:11:52;7.40;99.90
2603;DHT22;1311;47.966;7.958;2023-11-18T09:14:20;7.40;99.90
2603;DHT22;1311;47.966;7.958;2023-11-18T09:16:47;7.60;99.90
2603;DHT22;1311;47.966;7.958;2023-11-18T09:19:14;7.70;99.90
2603;DHT22;1311;47.966;7.958;2023-11-18T09:21:43;7.70;99.90
2603;DHT22;1311;47.966;7.958;2023-11-18T09:24:10;7.60;99.90
2603;DHT22;1311;47.966;7.958;2023-11-18T09:26:39;7.70;99.90
2603;DHT22;1311;47.966;7.958;2023-11-18T09:29:06;7.80;99.90
2603;DHT22;1311;47.966;7.958;2023-11-18T09:31:35;7.80;99.90
2603;DHT22;1311;47.966;7.958;2023-11-18T09:34:03;7.90;99.90
2603;DHT22;1311;47.966;7.958;2023-11-18T09:36:32;7.90;99.90
2603;DHT22;1311;47.966;7.958;2023-11-18T09:38:59;7.90;99.90
2603;DHT22;1311;47.966;7.958;2023-11-18T09:41:28;7.90;99.90
2603;DHT22;1311;47.966;7.958;2023-11-18T09:43:56;7.90;99.90
2603;DHT22;1311;47.966;7.958;2023-11-18T09:46:28;8.00;99.90
2603;DHT22;1311;47.966;7.958;2023-11-18T09:49:06;8.00;99.90
2603;DHT22;1311;47.966;7.958;2023-11-18T09:51:41;8.00;99.90
2603;DHT22;1311;47.966;7.958;2023-11-18T09:54:15;7.90;99.90
2603;DHT22;1311;47.966;7.958;2023-11-18T09:56:51;8.10;99.90
2603;DHT22;1311;47.966;7.958;2023-11-18T09:59:25;8.20;99.90
2603;DHT22;1311;47.966;7.958;2023-11-18T10:01:57;8.20;99.90
2603;DHT22;1311;47.966;7.958;2023-11-18T10:04:27;8.30;99.90
2603;DHT22;1311;47.966;7.958;2023-11-18T10:06:54;8.40;99.90
2603;DHT22;1311;47.966;7.958;2023-11-18T10:09:23;8.50;99.90
2603;DHT22;1311;47.966;7.958;2023-11-18T10:11:54;8.50;99.90
2603;DHT22;1311;47.966;7.958;2023-11-18T10:14:25;8.50;99.90
2603;DHT22;1311;47.966;7.958;2023-11-18T10:16:52;8.40;99.90
2603;DHT22;1311;47.966;7.958;2023-11-18T10:19:19;8.50;99.90
2603;DHT22;1311;47.966;7.958;2023-11-18T10:21:48;8.50;99.90
2603;DHT22;1311;47.966;7.958;2023-11-18T10:24:15;8.50;99.90
2603;DHT22;1311;47.966;7.958;2023-11-18T10:26:45;8.60;99.90
2603;DHT22;1311;47.966;7.958;2023-11-18T10:29:14;8.60;99.90
2603;DHT22;1311;47.966;7.958;2023-11-18T10:31:43;8.50;99.90
2603;DHT22;1311;47.966;7.958;2023-11-18T10:34:12;8.60;99.90
2603;DHT22;1311;47.966;7.958;2023-11-18T10:36:41;8.70;99.90
2603;DHT22;1311;47.966;7.958;2023-11-18T10:39:13;8.70;99.90
2603;DHT22;1311;47.966;7.958;2023-11-18T10:41:42;8.70;99.90
2603;DHT22;1311;47.966;7.958;2023-11-18T10:44:11;8.80;99.90
2603;DHT22;1311;47.966;7.958;2023-11-18T10:46:41;8.70;99.90
2603;DHT22;1311;47.966;7.958;2023-11-18T10:49:08;8.70;99.90
2603;DHT22;1311;47.966;7.958;2023-11-18T10:51:35;8.70;99.90
2603;DHT22;1311;47.966;7.958;2023-11-18T10:54:04;8.80;99.90
2603;DHT22;1311;47.966;7.958;2023-11-18T10:56:46;8.80;99.90
2603;DHT22;1311;47.966;7.958;2023-11-18T10:59:13;8.80;99.90
2603;DHT22;1311;47.966;7.958;2023-11-18T11:01:42;8.90;99.90
2603;DHT22;1311;47.966;7.958;2023-11-18T11:04:09;9.00;99.90
2603;DHT22;1311;47.966;7.958;2023-11-18T11:06:42;8.90;99.90
2603;DHT22;1311;47.966;7.958;2023-11-18T11:09:11;9.00;99.90
2603;DHT22;1311;47.966;7.958;2023-11-18T11:11:47;9.00;99.90
2603;DHT22;1311;47.966;7.958;2023-11-18T11:14:16;9.10;99.90
2603;DHT22;1311;47.966;7.958;2023-11-18T11:16:47;9.00;99.90
2603;DHT22;1311;47.966;7.958;2023-11-18T11:19:24;9.00;99.90
2603;DHT22;1311;47.966;7.958;2023-11-18T11:21:58;8.90;99.90
2603;DHT22;1311;47.966;7.958;2023-11-18T11:24:37;8.90;99.90
2603;DHT22;1311;47.966;7.958;2023-11-18T11:27:13;8.70;99.90
2603;DHT22;1311;47.966;7.958;2023-11-18T11:29:59;8.60;99.90
2603;DHT22;1311;47.966;7.958;2023-11-18T11:32:39;8.50;99.90
2603;DHT22;1311;47.966;7.958;2023-11-18T11:35:18;8.50;99.90
2603;DHT22;1311;47.966;7.958;2023-11-18T11:37:47;8.50;99.90
2603;DHT22;1311;47.966;7.958;2023-11-18T11:40:16;8.60;99.90
2603;DHT22;1311;47.966;7.958;2023-11-18T11:42:50;8.80;99.90
2603;DHT22;1311;47.966;7.958;2023-11-18T11:45:22;8.80;99.90
2603;DHT22;1311;47.966;7.958;2023-11-18T11:47:55;8.90;99.90
2603;DHT22;1311;47.966;7.958;2023-11-18T11:50:48;8.90;99.90
2603;DHT22;1311;47.966;7.958;2023-11-18T11:53:22;8.90;99.90
2603;DHT22;1311;47.966;7.958;2023-11-18T11:55:52;9.00;99.90
2603;DHT22;1311;47.966;7.958;2023-11-18T11:58:28;9.00;99.90
2603;DHT22;1311;47.966;7.958;2023-11-18T12:00:58;9.00;99.90
2603;DHT22;1311;47.966;7.958;2023-11-18T12:03:26;9.00;99.90
2603;DHT22;1311;47.966;7.958;2023-11-18T12:06:01;9.00;99.90
2603;DHT22;1311;47.966;7.958;2023-11-18T12:08:35;9.10;99.90
2603;DHT22;1311;47.966;7.958;2023-11-18T12:11:04;9.10;99.90
2603;DHT22;1311;47.966;7.958;2023-11-18T12:13:37;9.10;99.90
2603;DHT22;1311;47.966;7.958;2023-11-18T12:16:06;9.10;99.90
2603;DHT22;1311;47.966;7.958;2023-11-18T12:18:36;9.10;99.90
2603;DHT22;1311;47.966;7.958;2023-11-18T12:21:03;9.10;99.90
2603;DHT22;1311;47.966;7.958;2023-11-18T12:23:30;9.10;99.90
2603;DHT22;1311;47.966;7.958;2023-11-18T12:25:59;9.10;99.90
2603;DHT22;1311;47.966;7.958;2023-11-18T12:28:30;9.10;99.90
2603;DHT22;1311;47.966;7.958;2023-11-18T12:31:02;9.10;99.90
2603;DHT22;1311;47.966;7.958;2023-11-18T12:34:00;9.10;99.90
2603;DHT22;1311;47.966;7.958;2023-11-18T12:36:56;9.00;99.90
2603;DHT22;1311;47.966;7.958;2023-11-18T12:40:09;9.00;99.90
2603;DHT22;1311;47.966;7.958;2023-11-18T12:43:01;9.00;99.90
2603;DHT22;1311;47.966;7.958;2023-11-18T12:45:58;9.00;99.90
2603;DHT22;1311;47.966;7.958;2023-11-18T12:48:30;9.00;99.90
2603;DHT22;1311;47.966;7.958;2023-11-18T12:50:58;9.00;99.90
2603;DHT22;1311;47.966;7.958;2023-11-18T12:53:26;9.00;99.90
2603;DHT22;1311;47.966;7.958;2023-11-18T12:55:54;9.10;99.90
2603;DHT22;1311;47.966;7.958;2023-11-18T12:58:22;9.20;99.90
2603;DHT22;1311;47.966;7.958;2023-11-18T13:00:49;9.30;99.90
2603;DHT22;1311;47.966;7.958;2023-11-18T13:03:16;9.30;99.90
2603;DHT22;1311;47.966;7.958;2023-11-18T13:05:44;9.40;99.90
2603;DHT22;1311;47.966;7.958;2023-11-18T13:08:11;9.40;99.90
2603;DHT22;1311;47.966;7.958;2023-11-18T13:10:40;9.40;99.90
2603;DHT22;1311;47.966;7.958;2023-11-18T13:13:08;9.40;99.90
2603;DHT22;1311;47.966;7.958;2023-11-18T13:15:39;9.40;99.90
2603;DHT22;1311;47.966;7.958;2023-11-18T13:18:06;9.30;99.90
2603;DHT22;1311;47.966;7.958;2023-11-18T13:20:34;9.40;99.90
2603;DHT22;1311;47.966;7.958;2023-11-18T13:23:03;9.40;99.90
2603;DHT22;1311;47.966;7.958;2023-11-18T13:25:34;9.30;99.90
2603;DHT22;1311;47.966;7.958;2023-11-18T13:28:04;9.30;99.90
2603;DHT22;1311;47.966;7.958;2023-11-18T13:30:32;9.20;99.90
2603;DHT22;1311;47.966;7.958;2023-11-18T13:33:00;9.20;99.90
2603;DHT22;1311;47.966;7.958;2023-11-18T13:35:27;9.20;99.90
2603;DHT22;1311;47.966;7.958;2023-11-18T13:37:55;9.20;99.90
2603;DHT22;1311;47.966;7.958;2023-11-18T13:40:25;9.30;99.90
2603;DHT22;1311;47.966;7.958;2023-11-18T13:43:01;9.30;99.90
2603;DHT22;1311;47.966;7.958;2023-11-18T13:45:30;9.40;99.90
2603;DHT22;1311;47.966;7.958;2023-11-18T13:47:59;9.50;99.90
2603;DHT22;1311;47.966;7.958;2023-11-18T13:53:35;9.50;99.90
2603;DHT22;1311;47.966;7.958;2023-11-18T13:56:03;9.50;99.90
2603;DHT22;1311;47.966;7.958;2023-11-18T13:58:30;9.50;99.90
2603;DHT22;1311;47.966;7.958;2023-11-18T14:00:57;9.50;99.90
2603;DHT22;1311;47.966;7.958;2023-11-18T14:03:26;9.50;99.90
2603;DHT22;1311;47.966;7.958;2023-11-18T14:05:57;9.50;99.90
2603;DHT22;1311;47.966;7.958;2023-11-18T14:08:27;9.40;99.90
2603;DHT22;1311;47.966;7.958;2023-11-18T14:10:55;9.30;99.90
2603;DHT22;1311;47.966;7.958;2023-11-18T14:13:23;9.30;99.90
2603;DHT22;1311;47.966;7.958;2023-11-18T14:15:50;9.20;99.90
2603;DHT22;1311;47.966;7.958;2023-11-18T14:18:20;9.30;99.90
2603;DHT22;1311;47.966;7.958;2023-11-18T14:20:47;9.30;99.90
2603;DHT22;1311;47.966;7.958;2023-11-18T14:23:15;9.50;99.90
2603;DHT22;1311;47.966;7.958;2023-11-18T14:25:47;9.60;99.90
2603;DHT22;1311;47.966;7.958;2023-11-18T14:28:14;9.60;99.90
2603;DHT22;1311;47.966;7.958;2023-11-18T14:30:43;9.50;99.90
2603;DHT22;1311;47.966;7.958;2023-11-18T14:33:09;9.50;99.90
2603;DHT22;1311;47.966;7.958;2023-11-18T14:35:36;9.40;99.90
2603;DHT22;1311;47.966;7.958;2023-11-18T14:38:05;9.30;99.90
2603;DHT22;1311;47.966;7.958;2023-11-18T14:40:33;9.30;99.90
2603;DHT22;1311;47.966;7.958;2023-11-18T14:43:01;9.30;99.90
2603;DHT22;1311;47.966;7.958;2023-11-18T14:45:27;9.20;99.90
2603;DHT22;1311;47.966;7.958;2023-11-18T14:47:55;9.20;99.90
2603;DHT22;1311;47.966;7.958;2023-11-18T14:50:22;9.10;99.90
2603;DHT22;1311;47.966;7.958;2023-11-18T14:52:52;9.10;99.90
2603;DHT22;1311;47.966;7.958;2023-11-18T14:55:25;9.00;99.90
2603;DHT22;1311;47.966;7.958;2023-11-18T14:57:52;9.00;99.90
2603;DHT22;1311;47.966;7.958;2023-11-18T15:00:19;9.10;99.90
2603;DHT22;1311;47.966;7.958;2023-11-18T15:02:47;8.90;99.90
2603;DHT22;1311;47.966;7.958;2023-11-18T15:05:17;8.80;99.90
2603;DHT22;1311;47.966;7.958;2023-11-18T15:07:45;8.80;99.90
2603;DHT22;1311;47.966;7.958;2023-11-18T15:10:16;8.80;99.90
2603;DHT22;1311;47.966;7.958;2023-11-18T15:12:47;8.80;99.90
2603;DHT22;1311;47.966;7.958;2023-11-18T15:15:13;8.70;99.90
2603;DHT22;1311;47.966;7.958;2023-11-18T15:17:45;8.70;99.90
2603;DHT22;1311;47.966;7.958;2023-11-18T15:20:12;8.60;99.90
2603;DHT22;1311;47.966;7.958;2023-11-18T15:22:41;8.60;99.90
2603;DHT22;1311;47.966;7.958;2023-11-18T15:25:10;8.70;99.90
2603;DHT22;1311;47.966;7.958;2023-11-18T15:27:38;8.60;99.90
2603;DHT22;1311;47.966;7.958;2023-11-18T15:30:06;8.60;99.90
2603;DHT22;1311;47.966;7.958;2023-11-18T15:32:36;8.50;99.90
2603;DHT22;1311;47.966;7.958;2023-11-18T15:35:03;8.50;99.90
2603;DHT22;1311;47.966;7.958;2023-11-18T15:37:34;8.50;99.90
2603;DHT22;1311;47.966;7.958;2023-11-18T15:40:03;8.40;99.90
2603;DHT22;1311;47.966;7.958;2023-11-18T15:42:35;8.40;99.90
2603;DHT22;1311;47.966;7.958;2023-11-18T15:45:03;8.40;99.90
2603;DHT22;1311;47.966;7.958;2023-11-18T15:47:34;8.40;99.90
2603;DHT22;1311;47.966;7.958;2023-11-18T15:50:03;8.30;99.90
2603;DHT22;1311;47.966;7.958;2023-11-18T15:52:30;8.30;99.90
2603;DHT22;1311;47.966;7.958;2023-11-18T15:54:59;8.20;99.90
2603;DHT22;1311;47.966;7.958;2023-11-18T15:57:28;8.10;99.90
2603;DHT22;1311;47.966;7.958;2023-11-18T15:59:55;8.10;99.90
2603;DHT22;1311;47.966;7.958;2023-11-18T16:02:22;8.10;99.90
2603;DHT22;1311;47.966;7.958;2023-11-18T16:04:49;8.00;99.90
2603;DHT22;1311;47.966;7.958;2023-11-18T16:07:16;8.00;99.90
2603;DHT22;1311;47.966;7.958;2023-11-18T16:09:43;7.90;99.90
2603;DHT22;1311;47.966;7.958;2023-11-18T16:12:09;7.90;99.90
2603;DHT22;1311;47.966;7.958;2023-11-18T16:14:38;7.80;99.90
2603;DHT22;1311;47.966;7.958;2023-11-18T16:17:05;7.80;99.90
2603;DHT22;1311;47.966;7.958;2023-11-18T16:19:33;7.80;99.90
2603;DHT22;1311;47.966;7.958;2023-11-18T16:22:00;7.80;99.90
2603;DHT22;1311;47.966;7.958;2023-11-18T16:24:27;7.90;99.90
2603;DHT22;1311;47.966;7.958;2023-11-18T16:26:53;7.80;99.90
2603;DHT22;1311;47.966;7.958;2023-11-18T16:29:20;7.80;99.90
2603;DHT22;1311;47.966;7.958;2023-11-18T16:31:49;7.70;99.90